sensor_id;sensor_type;location;lat;lon;timestamp;pressure;altitude;pressure_sealevel;temperature;humidity
15405;BME280;7801;48.124;11.590;2023-08-07T00:00:16;95102.84;;;13.55;79.86
15405;BME280;7801;48.124;11.590;2023-08-07T00:02:41;95110.03;;;13.63;79.35
15405;BME280;7801;48.124;11.590;2023-08-07T00:05:07;95086.69;;;13.52;80.20
15405;BME280;7801;48.124;11.590;2023-08-07T00:07:33;95111.81;;;13.51;78.94
15405;BME280;7801;48.124;11.590;2023-08-07T00:09:58;95109.63;;;13.44;79.17
15405;BME280;7801;48.124;11.590;2023-08-07T00:12:23;95120.88;;;13.58;80.51
15405;BME280;7801;48.124;11.590;2023-08-07T00:14:50;95123.87;;;13.48;79.82
15405;BME280;7801;48.124;11.590;2023-08-07T00:17:16;95121.53;;;13.38;79.97
15405;BME280;7801;48.124;11.590;2023-08-07T00:19:41;95124.81;;;13.35;80.37
15405;BME280;7801;48.124;11.590;2023-08-07T00:22:07;95119.50;;;13.35;80.20
15405;BME280;7801;48.124;11.590;2023-08-07T00:24:32;95118.88;;;13.38;80.18
15405;BME280;7801;48.124;11.590;2023-08-07T00:26:57;95139.09;;;13.48;80.67
15405;BME280;7801;48.124;11.590;2023-08-07T00:29:22;95141.75;;;13.39;80.70
15405;BME280;7801;48.124;11.590;2023-08-07T00:31:48;95124.19;;;13.38;80.30
15405;BME280;7801;48.124;11.590;2023-08-07T00:34:13;95148.34;;;13.16;80.92
15405;BME280;7801;48.124;11.590;2023-08-07T00:36:38;95149.41;;;13.15;80.30
15405;BME280;7801;48.124;11.590;2023-08-07T00:39:04;95141.13;;;13.25;81.77
15405;BME280;7801;48.124;11.590;2023-08-07T00:41:29;95144.56;;;13.08;80.99
15405;BME280;7801;48.124;11.590;2023-08-07T00:43:54;95149.53;;;13.09;81.91
15405;BME280;7801;48.124;11.590;2023-08-07T00:46:20;95161.66;;;13.24;81.92
15405;BME280;7801;48.124;11.590;2023-08-07T00:48:45;95136.22;;;13.09;84.02
15405;BME280;7801;48.124;11.590;2023-08-07T00:51:11;95146.13;;;13.18;83.37
15405;BME280;7801;48.124;11.590;2023-08-07T00:53:38;95151.47;;;13.18;84.72
15405;BME280;7801;48.124;11.590;2023-08-07T00:56:04;95154.09;;;12.83;85.65
15405;BME280;7801;48.124;11.590;2023-08-07T00:58:30;95149.38;;;12.80;87.67
15405;BME280;7801;48.124;11.590;2023-08-07T01:00:56;95152.38;;;12.87;88.88
15405;BME280;7801;48.124;11.590;2023-08-07T01:03:23;95139.19;;;12.65;89.02
15405;BME280;7801;48.124;11.590;2023-08-07T01:05:48;95133.69;;;12.61;90.48
15405;BME280;7801;48.124;11.590;2023-08-07T01:08:14;95140.56;;;12.54;90.92
15405;BME280;7801;48.124;11.590;2023-08-07T01:19:09;95141.78;;;12.39;94.42
15405;BME280;7801;48.124;11.590;2023-08-07T01:21:37;95143.50;;;12.44;94.98
15405;BME280;7801;48.124;11.590;2023-08-07T01:24:03;95159.47;;;12.44;93.99
15405;BME280;7801;48.124;11.590;2023-08-07T01:26:28;95138.44;;;12.25;94.70
15405;BME280;7801;48.124;11.590;2023-08-07T01:29:16;95142.56;;;12.39;95.57
15405;BME280;7801;48.124;11.590;2023-08-07T01:31:44;95152.44;;;12.08;94.54
15405;BME280;7801;48.124;11.590;2023-08-07T01:34:15;95156.66;;;12.00;95.73
15405;BME280;7801;48.124;11.590;2023-08-07T01:36:44;95155.75;;;12.05;96.12
15405;BME280;7801;48.124;11.590;2023-08-07T01:39:10;95152.19;;;11.87;96.82
15405;BME280;7801;48.124;11.590;2023-08-07T01:41:38;95157.16;;;12.11;97.06
15405;BME280;7801;48.124;11.590;2023-08-07T01:44:04;95160.91;;;12.10;96.67
15405;BME280;7801;48.124;11.590;2023-08-07T01:46:30;95161.25;;;11.86;97.26
15405;BME280;7801;48.124;11.590;2023-08-07T01:48:55;95159.69;;;11.85;97.03
15405;BME280;7801;48.124;11.590;2023-08-07T01:51:20;95166.44;;;11.69;97.97
15405;BME280;7801;48.124;11.590;2023-08-07T01:53:46;95160.53;;;11.72;97.56
15405;BME280;7801;48.124;11.590;2023-08-07T01:56:12;95171.72;;;11.83;97.41
15405;BME280;7801;48.124;11.590;2023-08-07T01:58:38;95164.66;;;11.56;98.95
15405;BME280;7801;48.124;11.590;2023-08-07T02:01:03;95160.50;;;11.63;98.00
15405;BME280;7801;48.124;11.590;2023-08-07T02:03:28;95154.53;;;11.89;98.44
15405;BME280;7801;48.124;11.590;2023-08-07T02:05:54;95168.41;;;12.08;96.85
15405;BME280;7801;48.124;11.590;2023-08-07T02:08:19;95166.44;;;11.91;96.71
15405;BME280;7801;48.124;11.590;2023-08-07T02:10:44;95176.87;;;11.65;96.87
15405;BME280;7801;48.124;11.590;2023-08-07T02:13:09;95170.75;;;11.79;97.14
15405;BME280;7801;48.124;11.590;2023-08-07T02:15:35;95176.59;;;11.89;97.26
15405;BME280;7801;48.124;11.590;2023-08-07T02:18:00;95165.00;;;11.85;97.04
15405;BME280;7801;48.124;11.590;2023-08-07T02:20:25;95168.91;;;11.88;96.55
15405;BME280;7801;48.124;11.590;2023-08-07T02:22:51;95172.81;;;11.59;96.78
15405;BME280;7801;48.124;11.590;2023-08-07T02:25:16;95181.12;;;11.44;98.04
15405;BME280;7801;48.124;11.590;2023-08-07T02:27:41;95180.16;;;11.62;98.14
15405;BME280;7801;48.124;11.590;2023-08-07T02:30:07;95178.72;;;11.56;97.94
15405;BME280;7801;48.124;11.590;2023-08-07T02:32:32;95173.72;;;11.77;97.61
15405;BME280;7801;48.124;11.590;2023-08-07T02:34:58;95177.75;;;11.75;97.21
15405;BME280;7801;48.124;11.590;2023-08-07T02:37:24;95179.59;;;11.74;97.62
15405;BME280;7801;48.124;11.590;2023-08-07T02:39:49;95185.44;;;11.76;97.83
15405;BME280;7801;48.124;11.590;2023-08-07T02:42:14;95190.03;;;11.84;96.94
15405;BME280;7801;48.124;11.590;2023-08-07T02:44:40;95194.28;;;11.94;96.39
15405;BME280;7801;48.124;11.590;2023-08-07T02:47:06;95191.41;;;11.82;96.48
15405;BME280;7801;48.124;11.590;2023-08-07T02:49:31;95196.56;;;11.78;96.36
15405;BME280;7801;48.124;11.590;2023-08-07T02:51:56;95199.13;;;11.69;96.37
15405;BME280;7801;48.124;11.590;2023-08-07T02:54:22;95199.25;;;11.87;96.90
15405;BME280;7801;48.124;11.590;2023-08-07T02:56:47;95194.66;;;12.01;96.25
15405;BME280;7801;48.124;11.590;2023-08-07T02:59:14;95199.50;;;11.99;95.50
15405;BME280;7801;48.124;11.590;2023-08-07T03:01:39;95192.91;;;11.96;95.82
15405;BME280;7801;48.124;11.590;2023-08-07T03:04:05;95208.56;;;11.98;95.56
15405;BME280;7801;48.124;11.590;2023-08-07T03:06:30;95199.97;;;12.01;94.89
15405;BME280;7801;48.124;11.590;2023-08-07T03:08:55;95199.03;;;12.05;95.50
15405;BME280;7801;48.124;11.590;2023-08-07T03:11:21;95206.44;;;11.86;94.38
15405;BME280;7801;48.124;11.590;2023-08-07T03:13:46;95205.53;;;11.91;95.24
15405;BME280;7801;48.124;11.590;2023-08-07T03:16:11;95203.59;;;12.05;94.86
15405;BME280;7801;48.124;11.590;2023-08-07T03:18:37;95204.69;;;12.04;94.66
15405;BME280;7801;48.124;11.590;2023-08-07T03:21:02;95217.38;;;11.85;93.11
15405;BME280;7801;48.124;11.590;2023-08-07T03:23:27;95206.91;;;11.88;94.55
15405;BME280;7801;48.124;11.590;2023-08-07T03:26:04;95216.75;;;11.88;94.32
15405;BME280;7801;48.124;11.590;2023-08-07T03:28:29;95202.62;;;12.01;93.71
15405;BME280;7801;48.124;11.590;2023-08-07T03:30:55;95216.22;;;11.99;92.80
15405;BME280;7801;48.124;11.590;2023-08-07T03:33:20;95203.97;;;11.90;93.55
15405;BME280;7801;48.124;11.590;2023-08-07T03:35:45;95199.00;;;11.97;93.32
15405;BME280;7801;48.124;11.590;2023-08-07T03:38:11;95211.75;;;11.86;92.87
15405;BME280;7801;48.124;11.590;2023-08-07T03:40:36;95212.66;;;12.04;92.69
15405;BME280;7801;48.124;11.590;2023-08-07T03:43:01;95207.28;;;11.95;91.83
15405;BME280;7801;48.124;11.590;2023-08-07T03:45:27;95209.47;;;12.24;91.71
15405;BME280;7801;48.124;11.590;2023-08-07T03:47:54;95217.91;;;12.26;92.38
15405;BME280;7801;48.124;11.590;2023-08-07T03:50:19;95223.69;;;12.20;90.94
15405;BME280;7801;48.124;11.590;2023-08-07T03:52:45;95233.78;;;12.09;91.28
15405;BME280;7801;48.124;11.590;2023-08-07T03:55:10;95218.28;;;12.02;90.63
15405;BME280;7801;48.124;11.590;2023-08-07T03:57:35;95233.78;;;12.09;89.62
15405;BME280;7801;48.124;11.590;2023-08-07T04:00:01;95227.66;;;12.00;89.75
15405;BME280;7801;48.124;11.590;2023-08-07T04:02:27;95224.41;;;12.12;89.20
15405;BME280;7801;48.124;11.590;2023-08-07T04:04:53;95225.97;;;12.13;88.72
15405;BME280;7801;48.124;11.590;2023-08-07T04:07:19;95242.12;;;12.16;89.37
15405;BME280;7801;48.124;11.590;2023-08-07T04:09:44;95241.62;;;12.14;89.16
15405;BME280;7801;48.124;11.590;2023-08-07T04:12:09;95229.22;;;12.32;89.16
15405;BME280;7801;48.124;11.590;2023-08-07T04:14:34;95243.75;;;12.26;89.17
15405;BME280;7801;48.124;11.590;2023-08-07T04:17:00;95247.03;;;12.31;88.62
15405;BME280;7801;48.124;11.590;2023-08-07T04:19:25;95242.38;;;12.37;88.70
15405;BME280;7801;48.124;11.590;2023-08-07T04:21:51;95244.66;;;12.21;87.55
15405;BME280;7801;48.124;11.590;2023-08-07T04:24:16;95241.97;;;12.44;88.06
15405;BME280;7801;48.124;11.590;2023-08-07T04:26:42;95249.00;;;12.17;87.30
15405;BME280;7801;48.124;11.590;2023-08-07T04:29:07;95231.53;;;12.25;87.51
15405;BME280;7801;48.124;11.590;2023-08-07T04:31:32;95233.91;;;12.35;87.44
15405;BME280;7801;48.124;11.590;2023-08-07T04:33:58;95245.44;;;12.22;86.61
15405;BME280;7801;48.124;11.590;2023-08-07T04:36:23;95243.28;;;12.24;86.97
15405;BME280;7801;48.124;11.590;2023-08-07T04:38:49;95246.03;;;12.50;86.48
15405;BME280;7801;48.124;11.590;2023-08-07T04:41:15;95253.28;;;12.58;86.08
15405;BME280;7801;48.124;11.590;2023-08-07T04:43:40;95255.44;;;12.56;85.20
15405;BME280;7801;48.124;11.590;2023-08-07T04:46:08;95255.25;;;12.44;86.29
15405;BME280;7801;48.124;11.590;2023-08-07T04:48:34;95252.44;;;12.49;85.32
15405;BME280;7801;48.124;11.590;2023-08-07T04:51:02;95273.28;;;12.55;84.93
15405;BME280;7801;48.124;11.590;2023-08-07T04:53:28;95276.75;;;12.56;84.82
15405;BME280;7801;48.124;11.590;2023-08-07T04:55:53;95267.19;;;12.55;83.61
15405;BME280;7801;48.124;11.590;2023-08-07T04:58:19;95264.03;;;12.53;83.87
15405;BME280;7801;48.124;11.590;2023-08-07T05:00:44;95275.53;;;12.62;85.08
15405;BME280;7801;48.124;11.590;2023-08-07T05:03:10;95264.12;;;12.70;84.83
15405;BME280;7801;48.124;11.590;2023-08-07T05:05:37;95286.53;;;12.78;82.23
15405;BME280;7801;48.124;11.590;2023-08-07T05:08:03;95278.66;;;12.64;82.23
15405;BME280;7801;48.124;11.590;2023-08-07T05:10:28;95279.22;;;12.83;82.08
15405;BME280;7801;48.124;11.590;2023-08-07T05:12:54;95283.56;;;12.79;83.09
15405;BME280;7801;48.124;11.590;2023-08-07T05:15:22;95268.81;;;12.73;82.36
15405;BME280;7801;48.124;11.590;2023-08-07T05:17:48;95277.34;;;12.84;81.36
15405;BME280;7801;48.124;11.590;2023-08-07T05:20:13;95291.81;;;12.60;81.47
15405;BME280;7801;48.124;11.590;2023-08-07T05:22:38;95286.66;;;12.64;81.97
15405;BME280;7801;48.124;11.590;2023-08-07T05:25:04;95296.06;;;12.70;82.41
15405;BME280;7801;48.124;11.590;2023-08-07T05:27:30;95286.06;;;12.76;82.22
15405;BME280;7801;48.124;11.590;2023-08-07T05:29:55;95285.00;;;12.85;81.06
15405;BME280;7801;48.124;11.590;2023-08-07T05:32:20;95284.31;;;12.71;81.28
15405;BME280;7801;48.124;11.590;2023-08-07T05:34:46;95298.59;;;12.75;79.99
15405;BME280;7801;48.124;11.590;2023-08-07T05:37:11;95294.56;;;12.86;80.88
15405;BME280;7801;48.124;11.590;2023-08-07T05:39:36;95284.19;;;12.76;79.91
15405;BME280;7801;48.124;11.590;2023-08-07T05:42:02;95296.34;;;12.60;79.81
15405;BME280;7801;48.124;11.590;2023-08-07T05:44:28;95287.59;;;12.68;79.95
15405;BME280;7801;48.124;11.590;2023-08-07T05:46:53;95303.88;;;12.66;80.02
15405;BME280;7801;48.124;11.590;2023-08-07T05:49:19;95301.59;;;12.82;79.92
15405;BME280;7801;48.124;11.590;2023-08-07T05:51:46;95311.09;;;12.66;79.71
15405;BME280;7801;48.124;11.590;2023-08-07T05:54:14;95313.59;;;12.71;79.84
15405;BME280;7801;48.124;11.590;2023-08-07T05:56:40;95320.06;;;12.79;81.05
15405;BME280;7801;48.124;11.590;2023-08-07T05:59:06;95319.38;;;12.64;79.66
15405;BME280;7801;48.124;11.590;2023-08-07T06:01:31;95332.16;;;12.54;79.76
15405;BME280;7801;48.124;11.590;2023-08-07T06:03:57;95325.31;;;12.61;80.04
15405;BME280;7801;48.124;11.590;2023-08-07T06:06:23;95333.94;;;12.67;80.12
15405;BME280;7801;48.124;11.590;2023-08-07T06:08:50;95323.63;;;12.74;79.56
15405;BME280;7801;48.124;11.590;2023-08-07T06:11:15;95326.16;;;12.79;79.56
15405;BME280;7801;48.124;11.590;2023-08-07T06:13:41;95320.78;;;12.62;79.24
15405;BME280;7801;48.124;11.590;2023-08-07T06:16:06;95344.25;;;12.60;79.66
15405;BME280;7801;48.124;11.590;2023-08-07T06:18:32;95323.03;;;12.77;79.57
15405;BME280;7801;48.124;11.590;2023-08-07T06:20:57;95325.34;;;12.70;78.40
15405;BME280;7801;48.124;11.590;2023-08-07T06:23:22;95334.06;;;12.62;79.69
15405;BME280;7801;48.124;11.590;2023-08-07T06:25:48;95331.75;;;12.69;78.87
15405;BME280;7801;48.124;11.590;2023-08-07T06:28:13;95333.88;;;12.89;79.19
15405;BME280;7801;48.124;11.590;2023-08-07T06:30:38;95344.69;;;12.84;79.11
15405;BME280;7801;48.124;11.590;2023-08-07T06:33:04;95335.72;;;12.80;79.27
15405;BME280;7801;48.124;11.590;2023-08-07T06:35:29;95343.72;;;12.80;78.66
15405;BME280;7801;48.124;11.590;2023-08-07T06:37:55;95343.09;;;12.83;77.70
15405;BME280;7801;48.124;11.590;2023-08-07T06:40:20;95338.47;;;12.97;76.91
15405;BME280;7801;48.124;11.590;2023-08-07T06:42:45;95338.31;;;13.02;77.29
15405;BME280;7801;48.124;11.590;2023-08-07T06:45:11;95342.38;;;13.00;77.53
15405;BME280;7801;48.124;11.590;2023-08-07T06:47:36;95348.12;;;12.85;76.88
15405;BME280;7801;48.124;11.590;2023-08-07T06:50:02;95353.41;;;12.76;76.50
15405;BME280;7801;48.124;11.590;2023-08-07T06:52:27;95350.06;;;13.01;78.51
15405;BME280;7801;48.124;11.590;2023-08-07T06:54:52;95349.28;;;13.01;76.14
15405;BME280;7801;48.124;11.590;2023-08-07T06:57:18;95344.22;;;13.22;75.53
15405;BME280;7801;48.124;11.590;2023-08-07T06:59:43;95363.41;;;13.41;75.89
15405;BME280;7801;48.124;11.590;2023-08-07T07:02:09;95341.91;;;13.37;74.52
15405;BME280;7801;48.124;11.590;2023-08-07T07:04:34;95351.03;;;13.45;75.25
15405;BME280;7801;48.124;11.590;2023-08-07T07:07:01;95342.91;;;13.67;74.85
15405;BME280;7801;48.124;11.590;2023-08-07T07:09:27;95355.12;;;13.60;73.22
15405;BME280;7801;48.124;11.590;2023-08-07T07:11:54;95367.03;;;13.54;73.01
15405;BME280;7801;48.124;11.590;2023-08-07T07:14:19;95363.75;;;13.74;74.01
15405;BME280;7801;48.124;11.590;2023-08-07T07:16:45;95360.50;;;13.86;73.77
15405;BME280;7801;48.124;11.590;2023-08-07T07:19:10;95369.25;;;13.77;71.94
15405;BME280;7801;48.124;11.590;2023-08-07T07:21:35;95368.97;;;13.96;72.19
15405;BME280;7801;48.124;11.590;2023-08-07T07:24:02;95364.28;;;14.10;73.23
15405;BME280;7801;48.124;11.590;2023-08-07T07:26:27;95373.34;;;14.18;71.33
15405;BME280;7801;48.124;11.590;2023-08-07T07:28:52;95389.22;;;14.23;70.50
15405;BME280;7801;48.124;11.590;2023-08-07T07:31:18;95387.03;;;14.42;69.75
15405;BME280;7801;48.124;11.590;2023-08-07T07:33:43;95385.47;;;14.24;69.96
15405;BME280;7801;48.124;11.590;2023-08-07T07:36:16;95393.59;;;14.36;70.01
15405;BME280;7801;48.124;11.590;2023-08-07T07:38:41;95400.22;;;14.48;70.81
15405;BME280;7801;48.124;11.590;2023-08-07T07:41:07;95385.13;;;14.69;69.45
15405;BME280;7801;48.124;11.590;2023-08-07T07:43:35;95392.03;;;14.70;67.92
15405;BME280;7801;48.124;11.590;2023-08-07T07:46:00;95397.84;;;14.72;68.60
15405;BME280;7801;48.124;11.590;2023-08-07T07:48:26;95399.69;;;14.89;69.57
15405;BME280;7801;48.124;11.590;2023-08-07T07:50:51;95395.94;;;14.81;67.72
15405;BME280;7801;48.124;11.590;2023-08-07T07:53:18;95404.56;;;14.78;69.06
15405;BME280;7801;48.124;11.590;2023-08-07T07:55:47;95407.13;;;14.66;68.72
15405;BME280;7801;48.124;11.590;2023-08-07T07:58:13;95410.91;;;14.48;69.34
15405;BME280;7801;48.124;11.590;2023-08-07T08:00:38;95414.84;;;14.50;70.84
15405;BME280;7801;48.124;11.590;2023-08-07T08:03:03;95414.06;;;14.50;69.48
15405;BME280;7801;48.124;11.590;2023-08-07T08:05:29;95419.19;;;14.37;68.94
15405;BME280;7801;48.124;11.590;2023-08-07T08:07:54;95424.41;;;14.34;69.30
15405;BME280;7801;48.124;11.590;2023-08-07T08:10:20;95436.34;;;14.54;70.08
15405;BME280;7801;48.124;11.590;2023-08-07T08:12:45;95424.06;;;14.35;69.62
15405;BME280;7801;48.124;11.590;2023-08-07T08:15:10;95425.34;;;14.29;70.65
15405;BME280;7801;48.124;11.590;2023-08-07T08:17:36;95423.09;;;14.14;69.95
15405;BME280;7801;48.124;11.590;2023-08-07T08:20:01;95421.06;;;14.20;69.76
15405;BME280;7801;48.124;11.590;2023-08-07T08:22:26;95432.06;;;14.35;71.17
15405;BME280;7801;48.124;11.590;2023-08-07T08:24:52;95435.50;;;14.19;69.71
15405;BME280;7801;48.124;11.590;2023-08-07T08:27:17;95430.84;;;14.41;70.50
15405;BME280;7801;48.124;11.590;2023-08-07T08:29:43;95444.31;;;14.28;70.54
15405;BME280;7801;48.124;11.590;2023-08-07T08:32:08;95431.91;;;14.23;69.16
15405;BME280;7801;48.124;11.590;2023-08-07T08:34:34;95431.91;;;14.15;69.34
15405;BME280;7801;48.124;11.590;2023-08-07T08:36:59;95436.47;;;14.40;71.76
15405;BME280;7801;48.124;11.590;2023-08-07T08:39:25;95440.25;;;14.30;71.02
15405;BME280;7801;48.124;11.590;2023-08-07T08:41:50;95431.31;;;14.43;69.66
15405;BME280;7801;48.124;11.590;2023-08-07T08:44:17;95441.81;;;14.23;69.98
15405;BME280;7801;48.124;11.590;2023-08-07T08:46:45;95440.69;;;14.15;69.09
15405;BME280;7801;48.124;11.590;2023-08-07T08:49:16;95443.53;;;14.27;69.01
15405;BME280;7801;48.124;11.590;2023-08-07T08:51:46;95451.53;;;14.36;68.17
15405;BME280;7801;48.124;11.590;2023-08-07T08:54:12;95471.81;;;14.28;69.37
15405;BME280;7801;48.124;11.590;2023-08-07T08:56:38;95442.44;;;14.20;70.29
15405;BME280;7801;48.124;11.590;2023-08-07T08:59:04;95457.03;;;14.22;69.69
15405;BME280;7801;48.124;11.590;2023-08-07T09:01:30;95457.03;;;14.22;69.10
15405;BME280;7801;48.124;11.590;2023-08-07T09:03:55;95466.66;;;14.40;70.92
15405;BME280;7801;48.124;11.590;2023-08-07T09:06:21;95471.50;;;14.56;69.83
15405;BME280;7801;48.124;11.590;2023-08-07T09:08:47;95475.44;;;14.58;69.05
15405;BME280;7801;48.124;11.590;2023-08-07T09:11:15;95464.31;;;14.48;69.64
15405;BME280;7801;48.124;11.590;2023-08-07T09:13:42;95485.50;;;14.44;68.70
15405;BME280;7801;48.124;11.590;2023-08-07T09:16:10;95466.16;;;14.56;69.66
15405;BME280;7801;48.124;11.590;2023-08-07T09:18:36;95466.81;;;14.61;68.03
15405;BME280;7801;48.124;11.590;2023-08-07T09:21:02;95472.63;;;14.46;67.80
15405;BME280;7801;48.124;11.590;2023-08-07T09:23:28;95477.62;;;14.56;67.63
15405;BME280;7801;48.124;11.590;2023-08-07T09:26:03;95469.16;;;14.71;68.76
15405;BME280;7801;48.124;11.590;2023-08-07T09:28:33;95469.16;;;14.63;68.10
15405;BME280;7801;48.124;11.590;2023-08-07T09:30:59;95477.66;;;14.65;69.49
15405;BME280;7801;48.124;11.590;2023-08-07T09:33:26;95473.84;;;14.83;70.21
15405;BME280;7801;48.124;11.590;2023-08-07T09:35:52;95471.19;;;14.83;68.65
15405;BME280;7801;48.124;11.590;2023-08-07T09:38:18;95469.94;;;14.89;69.09
15405;BME280;7801;48.124;11.590;2023-08-07T09:40:43;95491.47;;;14.93;69.39
15405;BME280;7801;48.124;11.590;2023-08-07T09:43:08;95470.25;;;14.96;68.06
15405;BME280;7801;48.124;11.590;2023-08-07T09:45:34;95466.13;;;14.99;69.54
15405;BME280;7801;48.124;11.590;2023-08-07T09:48:05;95476.34;;;15.05;69.00
15405;BME280;7801;48.124;11.590;2023-08-07T09:50:34;95482.16;;;15.07;68.41
15405;BME280;7801;48.124;11.590;2023-08-07T09:52:59;95471.28;;;15.21;68.26
15405;BME280;7801;48.124;11.590;2023-08-07T09:55:25;95471.00;;;15.14;67.89
15405;BME280;7801;48.124;11.590;2023-08-07T09:57:51;95486.72;;;15.07;67.94
15405;BME280;7801;48.124;11.590;2023-08-07T10:00:18;95464.25;;;15.08;69.19
15405;BME280;7801;48.124;11.590;2023-08-07T10:02:50;95463.88;;;15.27;68.56
15405;BME280;7801;48.124;11.590;2023-08-07T10:05:16;95465.56;;;15.40;70.26
15405;BME280;7801;48.124;11.590;2023-08-07T10:07:42;95464.34;;;15.20;68.34
15405;BME280;7801;48.124;11.590;2023-08-07T10:10:09;95469.22;;;15.27;67.04
15405;BME280;7801;48.124;11.590;2023-08-07T10:12:36;95473.87;;;15.47;68.78
15405;BME280;7801;48.124;11.590;2023-08-07T10:15:02;95470.47;;;15.38;66.33
15405;BME280;7801;48.124;11.590;2023-08-07T10:17:29;95462.50;;;15.67;66.43
15405;BME280;7801;48.124;11.590;2023-08-07T10:19:56;95459.72;;;15.85;64.60
15405;BME280;7801;48.124;11.590;2023-08-07T10:22:26;95457.34;;;15.92;65.11
15405;BME280;7801;48.124;11.590;2023-08-07T10:24:53;95477.19;;;15.91;64.00
15405;BME280;7801;48.124;11.590;2023-08-07T10:27:23;95460.56;;;15.76;64.42
15405;BME280;7801;48.124;11.590;2023-08-07T10:29:51;95451.19;;;15.91;65.21
15405;BME280;7801;48.124;11.590;2023-08-07T10:32:19;95463.38;;;16.09;65.93
15405;BME280;7801;48.124;11.590;2023-08-07T10:34:54;95453.25;;;16.15;64.46
15405;BME280;7801;48.124;11.590;2023-08-07T10:37:46;95458.22;;;16.25;64.18
15405;BME280;7801;48.124;11.590;2023-08-07T10:40:12;95449.81;;;16.35;64.32
15405;BME280;7801;48.124;11.590;2023-08-07T10:42:57;95458.81;;;16.52;64.58
15405;BME280;7801;48.124;11.590;2023-08-07T10:45:24;95455.69;;;16.49;63.58
15405;BME280;7801;48.124;11.590;2023-08-07T10:48:10;95444.72;;;16.63;64.21
15405;BME280;7801;48.124;11.590;2023-08-07T10:53:30;95443.59;;;16.23;63.54
15405;BME280;7801;48.124;11.590;2023-08-07T10:55:55;95448.50;;;16.21;62.07
15405;BME280;7801;48.124;11.590;2023-08-07T10:58:25;95444.38;;;16.44;63.56
15405;BME280;7801;48.124;11.590;2023-08-07T11:01:21;95442.75;;;16.52;63.44
15405;BME280;7801;48.124;11.590;2023-08-07T11:03:55;95433.69;;;16.65;62.40
15405;BME280;7801;48.124;11.590;2023-08-07T11:06:27;95434.94;;;17.00;63.22
15405;BME280;7801;48.124;11.590;2023-08-07T11:08:53;95447.19;;;16.89;61.24
15405;BME280;7801;48.124;11.590;2023-08-07T11:11:19;95443.53;;;16.73;61.29
15405;BME280;7801;48.124;11.590;2023-08-07T11:13:44;95445.13;;;16.74;63.08
15405;BME280;7801;48.124;11.590;2023-08-07T11:16:11;95439.34;;;16.84;63.81
15405;BME280;7801;48.124;11.590;2023-08-07T11:18:37;95430.50;;;16.83;60.37
15405;BME280;7801;48.124;11.590;2023-08-07T11:21:06;95437.81;;;16.95;60.87
15405;BME280;7801;48.124;11.590;2023-08-07T11:23:31;95421.75;;;17.07;60.68
15405;BME280;7801;48.124;11.590;2023-08-07T11:25:57;95432.59;;;16.99;60.21
15405;BME280;7801;48.124;11.590;2023-08-07T11:28:23;95425.78;;;17.01;62.38
15405;BME280;7801;48.124;11.590;2023-08-07T11:30:53;95424.69;;;17.14;63.72
15405;BME280;7801;48.124;11.590;2023-08-07T11:33:21;95424.03;;;17.17;61.50
15405;BME280;7801;48.124;11.590;2023-08-07T11:35:47;95439.84;;;16.98;61.01
15405;BME280;7801;48.124;11.590;2023-08-07T11:38:28;95435.16;;;16.95;62.81
15405;BME280;7801;48.124;11.590;2023-08-07T11:40:57;95431.28;;;16.84;63.05
15405;BME280;7801;48.124;11.590;2023-08-07T11:43:22;95443.22;;;16.54;64.80
15405;BME280;7801;48.124;11.590;2023-08-07T11:45:47;95449.97;;;16.39;64.50
15405;BME280;7801;48.124;11.590;2023-08-07T11:48:13;95443.09;;;16.29;64.39
15405;BME280;7801;48.124;11.590;2023-08-07T11:50:39;95453.59;;;16.34;63.59
15405;BME280;7801;48.124;11.590;2023-08-07T11:53:04;95466.56;;;16.24;64.87
15405;BME280;7801;48.124;11.590;2023-08-07T11:55:29;95450.47;;;16.32;65.34
15405;BME280;7801;48.124;11.590;2023-08-07T11:57:55;95454.25;;;16.31;64.11
15405;BME280;7801;48.124;11.590;2023-08-07T12:00:24;95455.41;;;16.42;63.72
15405;BME280;7801;48.124;11.590;2023-08-07T12:02:51;95454.19;;;16.61;63.34
15405;BME280;7801;48.124;11.590;2023-08-07T12:05:17;95464.13;;;16.81;63.03
15405;BME280;7801;48.124;11.590;2023-08-07T12:07:42;95460.53;;;16.77;60.82
15405;BME280;7801;48.124;11.590;2023-08-07T12:10:09;95455.69;;;16.70;61.30
15405;BME280;7801;48.124;11.590;2023-08-07T12:12:36;95477.66;;;16.64;60.83
15405;BME280;7801;48.124;11.590;2023-08-07T12:15:02;95472.56;;;16.71;60.45
15405;BME280;7801;48.124;11.590;2023-08-07T12:17:31;95472.50;;;16.79;60.34
15405;BME280;7801;48.124;11.590;2023-08-07T12:19:57;95468.28;;;16.91;61.78
15405;BME280;7801;48.124;11.590;2023-08-07T12:22:23;95472.13;;;17.02;59.05
15405;BME280;7801;48.124;11.590;2023-08-07T12:24:48;95475.28;;;17.04;58.30
15405;BME280;7801;48.124;11.590;2023-08-07T12:27:14;95474.69;;;16.98;58.61
15405;BME280;7801;48.124;11.590;2023-08-07T12:29:39;95474.09;;;16.93;57.86
15405;BME280;7801;48.124;11.590;2023-08-07T12:32:04;95473.94;;;17.10;58.87
15405;BME280;7801;48.124;11.590;2023-08-07T12:34:30;95486.19;;;17.32;57.11
15405;BME280;7801;48.124;11.590;2023-08-07T12:36:56;95475.81;;;17.42;57.83
15405;BME280;7801;48.124;11.590;2023-08-07T12:39:21;95471.44;;;17.38;58.91
15405;BME280;7801;48.124;11.590;2023-08-07T12:41:46;95478.59;;;17.34;57.57
15405;BME280;7801;48.124;11.590;2023-08-07T12:44:13;95484.13;;;17.16;56.10
15405;BME280;7801;48.124;11.590;2023-08-07T12:46:38;95482.56;;;17.15;55.11
15405;BME280;7801;48.124;11.590;2023-08-07T12:49:05;95474.25;;;17.08;55.69
15405;BME280;7801;48.124;11.590;2023-08-07T12:51:32;95475.72;;;17.06;56.44
15405;BME280;7801;48.124;11.590;2023-08-07T12:53:57;95476.50;;;17.06;54.93
15405;BME280;7801;48.124;11.590;2023-08-07T12:56:22;95488.31;;;17.05;56.51
15405;BME280;7801;48.124;11.590;2023-08-07T12:58:48;95482.97;;;17.05;56.76
15405;BME280;7801;48.124;11.590;2023-08-07T13:01:15;95484.53;;;17.06;57.20
15405;BME280;7801;48.124;11.590;2023-08-07T13:03:40;95489.91;;;17.06;58.43
15405;BME280;7801;48.124;11.590;2023-08-07T13:06:06;95481.63;;;16.99;56.30